Azamara Quest — 9HOM8 — position and weather

sailwx.info

Track history (hours):
 
Tides and Currents Weather Stations Pressure Air Temp Water Temp Dewpoint Dewpoint Depression Visibility Wind Speed Wind Dir Waves Ship Positions

Azamara Quest

Last reported at 2017-Sep-20 21:00 UTC. Time now 2017-Sep-21 01:25 UTC.
Position N 35°54' E 014°32'.

Length 181 m; draft 5.9 m.

Type: Passenger vessel. MMSI: 256216000.

Date/timePositionNaut miles runAvg speedWind from/ knotsBaromVisibWave heightAir tempDewpointWater temp
2017-Sep-20 21:00N 35°54' E 014°32'1 0.0
2017-Sep-20 05:45N 35°54' E 014°31'2 7.0
2017-Sep-20 05:30N 35°55' E 014°33'714.1
2017-Sep-20 05:00N 36°01' E 014°38'102 9.6
2017-Sep-19 18:22N 37°37' E 015°20'614.1
2017-Sep-19 17:58N 37°43' E 015°19'613.6
2017-Sep-19 17:30N 37°49' E 015°17'1 0.2
2017-Sep-19 13:28N 37°50' E 015°17'0 0.0
2017-Sep-19 12:58N 37°50' E 015°17'0 0.0
2017-Sep-19 10:04N 37°50' E 015°17'1 4.5
2017-Sep-19 09:49N 37°50' E 015°18'412.0
2017-Sep-19 09:30N 37°53' E 015°21'612.5
2017-Sep-19 09:00N 37°58' E 015°26'612.9
2017-Sep-19 08:30N 38°04' E 015°30'713.4
2017-Sep-19 08:00N 38°09' E 015°35'714.4
2017-Sep-19 07:30N 38°15' E 015°39'611.5
2017-Sep-19 07:00N 38°21' E 015°39'5 9.2
2017-Sep-19 06:30N 38°26' E 015°37'5 9.0
2017-Sep-19 05:59N 38°30' E 015°34'5 9.2
2017-Sep-19 05:28N 38°34' E 015°32'4 9.0
2017-Sep-19 05:00N 38°38' E 015°30'5 9.0
2017-Sep-19 04:30N 38°42' E 015°27'5 9.2
2017-Sep-19 03:59N 38°47' E 015°25'5 9.1
2017-Sep-19 03:25N 38°51' E 015°23'4 9.2
2017-Sep-19 02:58N 38°55' E 015°21'8 9.5
2017-Sep-19 02:07N 39°03' E 015°17'1 9.4
2017-Sep-19 02:00N 39°04' E 015°16'2111.4
2017-Sep-19 00:08N 39°23' E 015°06'515.2
2017-Sep-18 23:50N 39°28' E 015°04'2015.0
2017-Sep-18 22:31N 39°45' E 014°53'015.0
2017-Sep-18 22:30N 39°46' E 014°53'60 2.4
2017-Sep-17 21:55N 40°39' E 014°18'4 9.4
2017-Sep-17 21:30N 40°38' E 014°23'0 0.2
2017-Sep-17 20:59N 40°38' E 014°23'0 0.1
2017-Sep-17 20:29N 40°38' E 014°23'0 0.0
2017-Sep-17 19:59N 40°38' E 014°23'0 0.0
2017-Sep-17 19:29N 40°38' E 014°23'0 0.1
2017-Sep-17 18:59N 40°38' E 014°23'0 0.0
2017-Sep-17 18:29N 40°38' E 014°23'0 0.0
2017-Sep-17 17:59N 40°38' E 014°23'0 0.0
2017-Sep-17 17:29N 40°38' E 014°23'0 0.1
2017-Sep-17 16:59N 40°38' E 014°23'0 0.1
2017-Sep-17 16:29N 40°38' E 014°23'0 0.0
2017-Sep-17 15:59N 40°38' E 014°23'0 0.0
2017-Sep-17 15:29N 40°38' E 014°23'0 0.0
2017-Sep-17 14:59N 40°38' E 014°23'0 0.1
2017-Sep-17 14:29N 40°38' E 014°23'0 0.0
2017-Sep-17 13:59N 40°38' E 014°23'0 0.1
2017-Sep-17 13:29N 40°38' E 014°23'0 0.0
2017-Sep-17 12:59N 40°38' E 014°23'0 0.0
2017-Sep-17 12:29N 40°38' E 014°23'0 0.0
2017-Sep-17 11:59N 40°38' E 014°23'0 0.0
2017-Sep-17 11:29N 40°38' E 014°23'0 0.0
2017-Sep-17 10:59N 40°38' E 014°23'0 0.0
2017-Sep-17 10:29N 40°38' E 014°23'0 0.0
2017-Sep-17 09:59N 40°38' E 014°23'0 0.0
2017-Sep-17 09:29N 40°38' E 014°23'0 0.1
2017-Sep-17 08:59N 40°38' E 014°23'0 0.0
2017-Sep-17 08:29N 40°38' E 014°23'0 0.1
2017-Sep-17 07:59N 40°38' E 014°23'0 0.1
2017-Sep-17 07:23N 40°38' E 014°23'0 0.1
2017-Sep-17 06:59N 40°38' E 014°23'0 0.1
2017-Sep-17 06:29N 40°38' E 014°23'0 0.1
2017-Sep-17 05:59N 40°38' E 014°23'14 0.4
2017-Sep-15 17:01N 40°39' E 014°04'014.3
2017-Sep-15 16:59N 40°39' E 014°05'714.4
2017-Sep-15 16:30N 40°39' E 014°14'713.2
2017-Sep-15 16:00N 40°39' E 014°22'0 0.7
2017-Sep-15 15:23N 40°38' E 014°23'0 0.0
2017-Sep-15 14:56N 40°38' E 014°23'0 0.0
2017-Sep-15 14:26N 40°38' E 014°23'0 0.0
2017-Sep-15 13:56N 40°38' E 014°23'0 0.0
2017-Sep-15 13:26N 40°38' E 014°23'0 0.0
2017-Sep-15 12:56N 40°38' E 014°23'0 0.0
2017-Sep-15 12:26N 40°38' E 014°23'0 0.1
2017-Sep-15 11:59N 40°38' E 014°23'0 0.1
2017-Sep-15 11:29N 40°38' E 014°23'0 0.1
2017-Sep-15 10:59N 40°38' E 014°23'0 0.1
2017-Sep-15 10:29N 40°38' E 014°23'0 0.0
2017-Sep-15 09:59N 40°38' E 014°23'0 0.0
2017-Sep-15 09:29N 40°38' E 014°23'0 0.0
2017-Sep-15 08:59N 40°38' E 014°22'0 0.0
2017-Sep-15 08:29N 40°38' E 014°22'0 0.0
2017-Sep-15 07:59N 40°38' E 014°22'0 0.0
2017-Sep-15 07:29N 40°38' E 014°22'0 0.0
2017-Sep-15 06:59N 40°38' E 014°22'0 0.0
2017-Sep-15 06:29N 40°38' E 014°22'0 0.1
2017-Sep-15 05:59N 40°38' E 014°22'0 0.0
2017-Sep-15 05:29N 40°38' E 014°22'55 2.0
2017-Sep-14 01:29N 39°47' E 014°48'2014.1
2017-Sep-14 00:02N 39°27' E 014°55'114.6
2017-Sep-14 00:00N 39°27' E 014°55'714.4
2017-Sep-13 23:30N 39°20' E 014°58'4113.2
2017-Sep-13 20:25N 38°42' E 015°15'714.5
2017-Sep-13 19:56N 38°36' E 015°21'714.1
2017-Sep-13 19:28N 38°32' E 015°27'714.3
2017-Sep-13 19:00N 38°27' E 015°32'816.8
2017-Sep-13 18:30N 38°20' E 015°40'611.6
2017-Sep-13 17:59N 38°14' E 015°38'713.7
2017-Sep-13 17:29N 38°08' E 015°36'22 1.7
2017-Sep-13 04:27N 37°48' E 015°46'613.8
2017-Sep-13 03:59N 37°47' E 015°54'714.0
2017-Sep-13 03:30N 37°46' E 016°02'  
Track history (hours):
 
Tides and Currents Weather Stations Pressure Air Temp Water Temp Dewpoint Dewpoint Depression Visibility Wind Speed Wind Dir Waves Ship Positions

Azamara Quest

Last reported at 2017-Sep-20 21:00 UTC. Time now 2017-Sep-21 01:25 UTC.
Position N 35°54' E 014°32'.

Length 181 m; draft 5.9 m.

Type: Passenger vessel. MMSI: 256216000.

Date/timePositionNaut miles runAvg speedWind from/ knotsBaromVisibWave heightAir tempDewpointWater temp
2017-Sep-20 21:00N 35°54' E 014°32'1 0.0
2017-Sep-20 05:45N 35°54' E 014°31'2 7.0
2017-Sep-20 05:30N 35°55' E 014°33'714.1
2017-Sep-20 05:00N 36°01' E 014°38'102 9.6
2017-Sep-19 18:22N 37°37' E 015°20'614.1
2017-Sep-19 17:58N 37°43' E 015°19'613.6
2017-Sep-19 17:30N 37°49' E 015°17'1 0.2
2017-Sep-19 13:28N 37°50' E 015°17'0 0.0
2017-Sep-19 12:58N 37°50' E 015°17'0 0.0
2017-Sep-19 10:04N 37°50' E 015°17'1 4.5
2017-Sep-19 09:49N 37°50' E 015°18'412.0
2017-Sep-19 09:30N 37°53' E 015°21'612.5
2017-Sep-19 09:00N 37°58' E 015°26'612.9
2017-Sep-19 08:30N 38°04' E 015°30'713.4
2017-Sep-19 08:00N 38°09' E 015°35'714.4
2017-Sep-19 07:30N 38°15' E 015°39'611.5
2017-Sep-19 07:00N 38°21' E 015°39'5 9.2
2017-Sep-19 06:30N 38°26' E 015°37'5 9.0
2017-Sep-19 05:59N 38°30' E 015°34'5 9.2
2017-Sep-19 05:28N 38°34' E 015°32'4 9.0
2017-Sep-19 05:00N 38°38' E 015°30'5 9.0
2017-Sep-19 04:30N 38°42' E 015°27'5 9.2
2017-Sep-19 03:59N 38°47' E 015°25'5 9.1
2017-Sep-19 03:25N 38°51' E 015°23'4 9.2
2017-Sep-19 02:58N 38°55' E 015°21'8 9.5
2017-Sep-19 02:07N 39°03' E 015°17'1 9.4
2017-Sep-19 02:00N 39°04' E 015°16'2111.4
2017-Sep-19 00:08N 39°23' E 015°06'515.2
2017-Sep-18 23:50N 39°28' E 015°04'2015.0
2017-Sep-18 22:31N 39°45' E 014°53'015.0
2017-Sep-18 22:30N 39°46' E 014°53'60 2.4
2017-Sep-17 21:55N 40°39' E 014°18'4 9.4
2017-Sep-17 21:30N 40°38' E 014°23'0 0.2
2017-Sep-17 20:59N 40°38' E 014°23'0 0.1
2017-Sep-17 20:29N 40°38' E 014°23'0 0.0
2017-Sep-17 19:59N 40°38' E 014°23'0 0.0
2017-Sep-17 19:29N 40°38' E 014°23'0 0.1
2017-Sep-17 18:59N 40°38' E 014°23'0 0.0
2017-Sep-17 18:29N 40°38' E 014°23'0 0.0
2017-Sep-17 17:59N 40°38' E 014°23'0 0.0
2017-Sep-17 17:29N 40°38' E 014°23'0 0.1
2017-Sep-17 16:59N 40°38' E 014°23'0 0.1
2017-Sep-17 16:29N 40°38' E 014°23'0 0.0
2017-Sep-17 15:59N 40°38' E 014°23'0 0.0
2017-Sep-17 15:29N 40°38' E 014°23'0 0.0
2017-Sep-17 14:59N 40°38' E 014°23'0 0.1
2017-Sep-17 14:29N 40°38' E 014°23'0 0.0
2017-Sep-17 13:59N 40°38' E 014°23'0 0.1
2017-Sep-17 13:29N 40°38' E 014°23'0 0.0
2017-Sep-17 12:59N 40°38' E 014°23'0 0.0
2017-Sep-17 12:29N 40°38' E 014°23'0 0.0
2017-Sep-17 11:59N 40°38' E 014°23'0 0.0
2017-Sep-17 11:29N 40°38' E 014°23'0 0.0
2017-Sep-17 10:59N 40°38' E 014°23'0 0.0
2017-Sep-17 10:29N 40°38' E 014°23'0 0.0
2017-Sep-17 09:59N 40°38' E 014°23'0 0.0
2017-Sep-17 09:29N 40°38' E 014°23'0 0.1
2017-Sep-17 08:59N 40°38' E 014°23'0 0.0
2017-Sep-17 08:29N 40°38' E 014°23'0 0.1
2017-Sep-17 07:59N 40°38' E 014°23'0 0.1
2017-Sep-17 07:23N 40°38' E 014°23'0 0.1
2017-Sep-17 06:59N 40°38' E 014°23'0 0.1
2017-Sep-17 06:29N 40°38' E 014°23'0 0.1
2017-Sep-17 05:59N 40°38' E 014°23'14 0.4
2017-Sep-15 17:01N 40°39' E 014°04'014.3
2017-Sep-15 16:59N 40°39' E 014°05'714.4
2017-Sep-15 16:30N 40°39' E 014°14'713.2
2017-Sep-15 16:00N 40°39' E 014°22'0 0.7
2017-Sep-15 15:23N 40°38' E 014°23'0 0.0
2017-Sep-15 14:56N 40°38' E 014°23'0 0.0
2017-Sep-15 14:26N 40°38' E 014°23'0 0.0
2017-Sep-15 13:56N 40°38' E 014°23'0 0.0
2017-Sep-15 13:26N 40°38' E 014°23'0 0.0
2017-Sep-15 12:56N 40°38' E 014°23'0 0.0
2017-Sep-15 12:26N 40°38' E 014°23'0 0.1
2017-Sep-15 11:59N 40°38' E 014°23'0 0.1
2017-Sep-15 11:29N 40°38' E 014°23'0 0.1
2017-Sep-15 10:59N 40°38' E 014°23'0 0.1
2017-Sep-15 10:29N 40°38' E 014°23'0 0.0
2017-Sep-15 09:59N 40°38' E 014°23'0 0.0
2017-Sep-15 09:29N 40°38' E 014°23'0 0.0
2017-Sep-15 08:59N 40°38' E 014°22'0 0.0
2017-Sep-15 08:29N 40°38' E 014°22'0 0.0
2017-Sep-15 07:59N 40°38' E 014°22'0 0.0
2017-Sep-15 07:29N 40°38' E 014°22'0 0.0
2017-Sep-15 06:59N 40°38' E 014°22'0 0.0
2017-Sep-15 06:29N 40°38' E 014°22'0 0.1
2017-Sep-15 05:59N 40°38' E 014°22'0 0.0
2017-Sep-15 05:29N 40°38' E 014°22'55 2.0
2017-Sep-14 01:29N 39°47' E 014°48'2014.1
2017-Sep-14 00:02N 39°27' E 014°55'114.6
2017-Sep-14 00:00N 39°27' E 014°55'714.4
2017-Sep-13 23:30N 39°20' E 014°58'4113.2
2017-Sep-13 20:25N 38°42' E 015°15'714.5
2017-Sep-13 19:56N 38°36' E 015°21'714.1
2017-Sep-13 19:28N 38°32' E 015°27'714.3
2017-Sep-13 19:00N 38°27' E 015°32'816.8
2017-Sep-13 18:30N 38°20' E 015°40'611.6
2017-Sep-13 17:59N 38°14' E 015°38'713.7
2017-Sep-13 17:29N 38°08' E 015°36'22 1.7
2017-Sep-13 04:27N 37°48' E 015°46'613.8
2017-Sep-13 03:59N 37°47' E 015°54'714.0
2017-Sep-13 03:30N 37°46' E 016°02'  

Dump ship's entire track history